Time;durP1;ratioP1;P1;durP2;ratioP2;P2;SDS_P1;SDS_P2;PMS_P1;PMS_P2;Temp;Humidity;BMP_temperature;BMP_pressure;BME280_temperature;BME280_humidity;BME280_pressure;Samples;Min_cycle;Max_cycle;Signal;HPM_P1;HPM_P2
2023/05/18 00:02:06;;;;;;;6.22;2.67;;;21.30;44.60;;;;;;4974326;28;20027;-75
2023/05/18 00:04:33;;;;;;;5.18;2.33;;;21.20;44.60;;;;;;4974319;28;20031;-75
2023/05/18 00:07:03;;;;;;;6.63;2.33;;;21.30;44.60;;;;;;4973890;28;20043;-75
2023/05/18 00:09:31;;;;;;;6.57;2.50;;;21.20;44.60;;;;;;4973222;28;20505;-75
2023/05/18 00:11:57;;;;;;;5.57;2.38;;;21.20;44.60;;;;;;4974457;28;20030;-74
2023/05/18 00:14:23;;;;;;;6.03;2.30;;;21.20;44.60;;;;;;4956842;28;20030;-75
2023/05/18 00:16:49;;;;;;;6.47;2.70;;;21.20;44.60;;;;;;4973951;28;20031;-75
2023/05/18 00:19:15;;;;;;;5.53;2.20;;;21.20;44.60;;;;;;4973814;28;20110;-74
2023/05/18 00:21:42;;;;;;;5.57;2.58;;;21.20;44.60;;;;;;4973832;28;20158;-75
2023/05/18 00:24:11;;;;;;;8.20;2.58;;;21.20;44.60;;;;;;4973923;28;20030;-75
2023/05/18 00:26:38;;;;;;;6.13;2.65;;;21.20;44.60;;;;;;4974253;28;20034;-75
2023/05/18 00:29:04;;;;;;;5.90;2.42;;;21.20;44.70;;;;;;4973270;28;20062;-75
2023/05/18 00:31:34;;;;;;;5.82;2.55;;;21.20;44.60;;;;;;4973721;28;20034;-74
2023/05/18 00:34:05;;;;;;;6.22;2.55;;;21.30;44.80;;;;;;4956514;28;20328;-75
2023/05/18 00:36:31;;;;;;;6.38;2.15;;;21.20;44.70;;;;;;4940490;28;20031;-75
2023/05/18 00:38:57;;;;;;;5.70;2.15;;;21.20;44.60;;;;;;4940455;28;20038;-75
2023/05/18 00:41:25;;;;;;;4.53;2.30;;;21.30;44.80;;;;;;4956311;28;20034;-75
2023/05/18 00:43:51;;;;;;;6.10;2.38;;;21.20;44.70;;;;;;4956421;28;20035;-75
2023/05/18 00:46:17;;;;;;;6.13;2.50;;;21.20;44.70;;;;;;4956167;28;20031;-74
2023/05/18 00:48:44;;;;;;;5.32;2.40;;;21.20;44.70;;;;;;4972960;28;20030;-75
2023/05/18 00:51:10;;;;;;;4.85;2.33;;;21.20;44.70;;;;;;4973433;28;20077;-75
2023/05/18 00:53:36;;;;;;;7.45;2.58;;;21.20;44.70;;;;;;4973694;28;20027;-74
2023/05/18 00:56:03;;;;;;;4.35;2.10;;;21.20;44.70;;;;;;4956101;28;20033;-75
2023/05/18 00:58:30;;;;;;;6.72;2.50;;;21.20;44.70;;;;;;4955692;28;20027;-75
2023/05/18 01:00:56;;;;;;;8.27;2.42;;;21.20;44.80;;;;;;4956104;28;20039;-74
2023/05/18 01:03:23;;;;;;;5.63;2.30;;;21.20;44.80;;;;;;4955885;28;20027;-75
2023/05/18 01:05:54;;;;;;;4.57;2.20;;;21.20;44.80;;;;;;4940204;28;20034;-74
2023/05/18 01:08:22;;;;;;;4.97;2.42;;;21.20;44.80;;;;;;4972977;28;20085;-75
2023/05/18 01:11:10;;;;;;;5.85;2.33;;;21.20;44.90;;;;;;4939729;28;20035;-75
2023/05/18 01:13:54;;;;;;;4.43;2.05;;;21.20;44.90;;;;;;4955834;28;20442;-74
2023/05/18 01:16:36;;;;;;;4.95;2.30;;;21.20;44.90;;;;;;4955710;28;20114;-75
2023/05/18 01:19:36;;;;;;;5.68;2.50;;;21.20;44.80;;;;;;4955404;28;20030;-74
2023/05/18 01:22:22;;;;;;;7.22;2.55;;;21.20;44.90;;;;;;4932284;28;20054;-74
2023/05/18 01:24:56;;;;;;;3.88;2.00;;;21.20;44.90;;;;;;4972954;28;20401;-74
2023/05/18 01:27:24;;;;;;;4.35;2.10;;;21.20;44.90;;;;;;4972548;28;20041;-75
2023/05/18 01:29:54;;;;;;;6.60;2.45;;;21.20;44.90;;;;;;4955336;28;20045;-74
2023/05/18 01:32:21;;;;;;;5.68;2.22;;;21.20;44.90;;;;;;4955491;28;20031;-74
2023/05/18 01:34:47;;;;;;;5.32;2.20;;;21.20;44.90;;;;;;4939631;28;20038;-75
2023/05/18 01:37:13;;;;;;;5.45;2.33;;;21.10;44.90;;;;;;4955160;28;20030;-75
2023/05/18 01:39:39;;;;;;;4.68;2.00;;;21.20;44.90;;;;;;4955323;28;20064;-75
2023/05/18 01:42:17;;;;;;;5.70;2.15;;;21.20;44.90;;;;;;4939329;28;20468;-74
2023/05/18 01:44:57;;;;;;;4.55;2.30;;;21.20;45.10;;;;;;4955329;28;20031;-74
2023/05/18 01:47:26;;;;;;;6.37;2.63;;;21.20;44.90;;;;;;4955208;28;20039;-75
2023/05/18 01:49:58;;;;;;;3.60;2.10;;;21.20;44.90;;;;;;4955263;28;20389;-75
2023/05/18 01:52:38;;;;;;;4.45;1.90;;;21.20;44.90;;;;;;4955372;28;20030;-74
2023/05/18 01:55:07;;;;;;;4.35;1.92;;;21.20;45.00;;;;;;4955428;28;20031;-74
2023/05/18 01:57:35;;;;;;;4.05;2.17;;;21.20;44.90;;;;;;4954858;28;20065;-75
2023/05/18 02:00:03;;;;;;;5.78;2.47;;;21.20;45.00;;;;;;4923578;28;20090;-74
2023/05/18 02:02:42;;;;;;;4.78;2.13;;;21.10;44.90;;;;;;4957078;28;20066;-75
2023/05/18 02:05:11;;;;;;;6.05;2.30;;;21.10;44.90;;;;;;4955270;28;20034;-75
2023/05/18 02:07:38;;;;;;;4.80;2.25;;;21.10;45.00;;;;;;4954889;28;20031;-74
2023/05/18 02:10:07;;;;;;;5.90;2.33;;;21.10;45.00;;;;;;4923232;28;20031;-74
2023/05/18 02:12:33;;;;;;;5.15;2.33;;;21.10;45.00;;;;;;4955281;28;20022;-74
2023/05/18 02:15:04;;;;;;;5.97;2.30;;;21.10;45.00;;;;;;4955134;28;20043;-75
2023/05/18 02:17:37;;;;;;;4.85;2.10;;;21.10;45.00;;;;;;4923486;28;20027;-75
2023/05/18 02:20:07;;;;;;;6.68;2.50;;;21.10;45.00;;;;;;4939246;28;20041;-74
2023/05/18 02:22:33;;;;;;;5.47;2.10;;;21.10;45.00;;;;;;4955045;28;20034;-74
2023/05/18 02:24:59;;;;;;;4.47;2.10;;;21.10;45.10;;;;;;4955217;28;20043;-74
2023/05/18 02:27:25;;;;;;;6.57;2.58;;;21.10;45.70;;;;;;4954694;28;20027;-74
2023/05/18 02:29:52;;;;;;;5.03;2.15;;;21.10;45.10;;;;;;4938727;28;20035;-74
2023/05/18 02:32:18;;;;;;;5.65;1.95;;;21.10;45.00;;;;;;4973603;28;20062;-74
2023/05/18 02:34:45;;;;;;;5.80;2.33;;;21.10;45.00;;;;;;4942960;28;20074;-75
2023/05/18 02:37:12;;;;;;;6.65;2.25;;;21.10;45.00;;;;;;4958262;28;20077;-75
2023/05/18 02:39:38;;;;;;;6.47;2.40;;;21.10;45.10;;;;;;4942673;28;20468;-74
2023/05/18 02:42:05;;;;;;;3.40;1.90;;;21.10;45.00;;;;;;4958537;28;20378;-74
2023/05/18 02:44:30;;;;;;;3.55;1.90;;;21.20;45.10;;;;;;4958453;28;20110;-74
2023/05/18 02:46:56;;;;;;;4.43;1.95;;;21.10;45.30;;;;;;4958052;28;20178;-74
2023/05/18 02:49:22;;;;;;;6.15;2.40;;;21.10;45.20;;;;;;4958296;28;20035;-75
2023/05/18 02:51:48;;;;;;;5.57;2.40;;;21.10;45.20;;;;;;4958345;28;20425;-75
2023/05/18 02:54:14;;;;;;;5.03;2.28;;;21.10;45.10;;;;;;4958435;28;20023;-75
2023/05/18 02:56:41;;;;;;;5.20;2.28;;;21.10;45.20;;;;;;4958379;28;20062;-74
2023/05/18 02:59:16;;;;;;;6.57;2.28;;;21.10;45.20;;;;;;4958034;28;20043;-74
2023/05/18 03:01:43;;;;;;;5.45;2.03;;;21.10;45.10;;;;;;4958128;28;20058;-74
2023/05/18 03:04:10;;;;;;;5.82;1.95;;;21.10;45.20;;;;;;4926497;28;20047;-74
2023/05/18 03:06:45;;;;;;;6.00;2.45;;;21.10;45.20;;;;;;4942463;28;20041;-74
2023/05/18 03:09:11;;;;;;;4.33;1.80;;;21.10;45.20;;;;;;4941904;28;20461;-75
2023/05/18 03:11:42;;;;;;;5.28;2.10;;;21.10;45.30;;;;;;4958030;28;20058;-74
2023/05/18 03:14:09;;;;;;;5.82;2.17;;;21.10;45.20;;;;;;4957916;28;20489;-74
2023/05/18 03:16:37;;;;;;;3.90;1.95;;;21.10;45.20;;;;;;4942123;28;20033;-74
2023/05/18 03:19:04;;;;;;;6.15;2.42;;;21.10;45.20;;;;;;4957574;28;20030;-75
2023/05/18 03:21:34;;;;;;;3.60;1.92;;;21.10;45.20;;;;;;4942007;28;20042;-75
2023/05/18 03:24:02;;;;;;;5.97;2.35;;;21.10;45.30;;;;;;4941987;28;20085;-75
2023/05/18 03:26:29;;;;;;;3.40;1.73;;;21.00;45.20;;;;;;4941836;28;20468;-75
2023/05/18 03:28:59;;;;;;;7.18;2.20;;;21.10;45.30;;;;;;4941032;28;20035;-75
2023/05/18 03:31:26;;;;;;;5.32;2.00;;;21.00;45.20;;;;;;4941618;28;20030;-75
2023/05/18 03:33:53;;;;;;;5.53;1.95;;;21.10;45.30;;;;;;4957568;28;20030;-75
2023/05/18 03:36:21;;;;;;;4.63;1.98;;;21.10;45.30;;;;;;4957510;28;20033;-75
2023/05/18 03:38:47;;;;;;;5.50;2.28;;;21.10;45.20;;;;;;4957130;28;20027;-75
2023/05/18 03:41:14;;;;;;;6.70;2.28;;;21.10;45.50;;;;;;4941788;28;20480;-75
2023/05/18 03:43:40;;;;;;;5.00;2.00;;;21.10;45.30;;;;;;4957285;28;20038;-75
2023/05/18 03:46:06;;;;;;;5.00;2.08;;;21.10;45.20;;;;;;4941385;28;20023;-75
2023/05/18 03:48:32;;;;;;;6.60;2.25;;;21.10;45.20;;;;;;4956967;28;20061;-74
2023/05/18 03:50:58;;;;;;;4.82;2.20;;;21.10;45.20;;;;;;4957232;28;20536;-74
2023/05/18 03:53:28;;;;;;;4.43;1.95;;;21.10;45.30;;;;;;4957311;28;20043;-75
2023/05/18 03:55:54;;;;;;;4.57;1.85;;;21.10;45.40;;;;;;4957177;28;20027;-75
2023/05/18 03:58:20;;;;;;;7.80;2.00;;;21.10;45.30;;;;;;4956619;28;20049;-75
2023/05/18 04:00:48;;;;;;;7.18;2.30;;;21.10;45.50;;;;;;4941460;28;20069;-75
2023/05/18 04:03:14;;;;;;;5.82;2.08;;;21.10;45.50;;;;;;4941176;28;20073;-75
2023/05/18 04:05:42;;;;;;;6.07;2.28;;;21.10;45.30;;;;;;4941211;28;20067;-75
2023/05/18 04:08:09;;;;;;;5.32;2.10;;;21.10;45.40;;;;;;4956701;28;20035;-75
2023/05/18 04:10:35;;;;;;;5.70;2.35;;;21.10;45.30;;;;;;4974164;28;20022;-75
2023/05/18 04:13:01;;;;;;;6.65;2.00;;;21.10;45.40;;;;;;4956951;28;20034;-75
2023/05/18 04:15:27;;;;;;;5.82;2.30;;;21.10;45.50;;;;;;4940928;28;20027;-74
2023/05/18 04:17:54;;;;;;;7.03;2.72;;;21.10;45.40;;;;;;4956437;28;20027;-75
2023/05/18 04:20:20;;;;;;;4.85;2.22;;;21.10;45.30;;;;;;4956814;28;20544;-75
2023/05/18 04:22:47;;;;;;;6.72;2.13;;;21.10;45.30;;;;;;4940989;28;20126;-74
2023/05/18 04:25:14;;;;;;;5.30;2.33;;;21.10;45.30;;;;;;4956708;28;20492;-75
2023/05/18 04:27:42;;;;;;;5.32;2.00;;;21.10;45.40;;;;;;4924598;28;20027;-74
2023/05/18 04:30:11;;;;;;;5.93;2.30;;;21.10;45.50;;;;;;4956360;28;20453;-75
2023/05/18 04:32:41;;;;;;;5.28;2.30;;;21.10;45.70;;;;;;4940713;28;20105;-74
2023/05/18 04:35:09;;;;;;;7.03;2.30;;;21.10;45.50;;;;;;4956482;28;20027;-74
2023/05/18 04:37:39;;;;;;;5.13;2.20;;;21.10;45.70;;;;;;4956028;28;20576;-75
2023/05/18 04:40:12;;;;;;;4.93;1.92;;;21.10;45.40;;;;;;4956644;28;20034;-75
2023/05/18 04:42:44;;;;;;;5.53;2.55;;;21.10;45.20;;;;;;4940592;28;20030;-75
2023/05/18 04:45:16;;;;;;;5.78;2.08;;;21.10;45.50;;;;;;4973703;28;20030;-75
2023/05/18 04:47:45;;;;;;;4.22;2.00;;;21.10;45.50;;;;;;4940099;28;20218;-75
2023/05/18 04:50:16;;;;;;;5.43;2.22;;;21.10;45.40;;;;;;4956082;28;20037;-75
2023/05/18 04:52:49;;;;;;;5.38;2.17;;;21.10;45.60;;;;;;4956048;28;20037;-75
2023/05/18 04:55:24;;;;;;;6.25;1.95;;;21.20;45.50;;;;;;4955526;28;20070;-76
2023/05/18 04:57:55;;;;;;;5.57;2.38;;;21.10;45.50;;;;;;4939832;28;20027;-75
2023/05/18 05:00:23;;;;;;;5.35;2.13;;;21.10;45.40;;;;;;4955952;28;20035;-75
2023/05/18 05:02:50;;;;;;;4.18;2.10;;;21.20;45.40;;;;;;4955847;28;20104;-75
2023/05/18 05:05:16;;;;;;;5.63;2.13;;;21.10;45.40;;;;;;4955866;28;20034;-75
2023/05/18 05:07:42;;;;;;;4.68;2.30;;;21.10;45.60;;;;;;4972952;28;20027;-75
2023/05/18 05:10:08;;;;;;;7.18;2.35;;;21.20;45.80;;;;;;4955821;28;20041;-75
2023/05/18 05:12:39;;;;;;;4.88;2.17;;;21.10;45.50;;;;;;4955806;28;20023;-75
2023/05/18 05:15:06;;;;;;;6.88;2.17;;;21.10;45.50;;;;;;4973097;28;20397;-75
2023/05/18 05:17:32;;;;;;;3.95;2.00;;;21.20;45.90;;;;;;4955451;28;20027;-75
2023/05/18 05:19:58;;;;;;;6.13;2.15;;;21.20;45.40;;;;;;4972930;28;20035;-75
2023/05/18 05:22:24;;;;;;;5.47;2.22;;;21.10;45.60;;;;;;4955685;28;20038;-75
2023/05/18 05:24:51;;;;;;;6.50;2.53;;;21.20;45.60;;;;;;4955675;28;20126;-75
2023/05/18 05:27:17;;;;;;;5.75;2.22;;;21.10;45.50;;;;;;4955264;28;20106;-75
2023/05/18 05:29:45;;;;;;;4.70;2.13;;;21.20;45.60;;;;;;4939440;28;20486;-75
2023/05/18 05:32:12;;;;;;;5.32;2.40;;;21.20;45.60;;;;;;4955869;28;20031;-75
2023/05/18 05:34:39;;;;;;;5.30;2.30;;;21.20;45.50;;;;;;4955516;28;20030;-75
2023/05/18 05:37:06;;;;;;;6.68;2.20;;;21.20;45.50;;;;;;4955181;28;20030;-74
2023/05/18 05:39:31;;;;;;;4.38;1.98;;;21.20;45.70;;;;;;4972668;28;20501;-75
2023/05/18 05:41:58;;;;;;;6.22;2.10;;;21.20;45.60;;;;;;4955375;28;20031;-75
2023/05/18 05:44:24;;;;;;;4.03;1.92;;;21.20;45.50;;;;;;4955438;28;20042;-75
2023/05/18 05:46:50;;;;;;;7.47;2.50;;;21.20;45.50;;;;;;4939248;28;20045;-74
2023/05/18 05:49:16;;;;;;;6.35;2.42;;;21.20;45.70;;;;;;4939323;28;20068;-75
2023/05/18 05:51:42;;;;;;;7.22;1.85;;;21.20;45.50;;;;;;4939418;28;20035;-75
2023/05/18 05:54:08;;;;;;;4.82;2.03;;;21.20;45.60;;;;;;4955156;28;20106;-75
2023/05/18 05:56:34;;;;;;;6.38;2.40;;;21.20;45.70;;;;;;4939315;28;20035;-75
2023/05/18 05:59:00;;;;;;;6.32;2.20;;;21.20;45.70;;;;;;4954852;28;20090;-75
2023/05/18 06:01:26;;;;;;;5.15;2.28;;;21.20;46.00;;;;;;4955232;28;20026;-75
2023/05/18 06:03:52;;;;;;;5.43;2.42;;;21.20;45.90;;;;;;4955260;28;20392;-75
2023/05/18 06:06:17;;;;;;;4.53;1.98;;;21.20;45.60;;;;;;4939342;28;20035;-74
2023/05/18 06:08:43;;;;;;;5.40;2.40;;;21.20;45.70;;;;;;4975780;28;20023;-74
2023/05/18 06:11:10;;;;;;;5.30;2.15;;;21.20;45.60;;;;;;4959222;28;20097;-74
2023/05/18 06:13:35;;;;;;;5.40;1.95;;;21.20;45.90;;;;;;4959007;28;20053;-74
2023/05/18 06:16:01;;;;;;;5.40;2.00;;;21.20;45.80;;;;;;4958881;28;20039;-74
2023/05/18 06:18:28;;;;;;;6.65;2.03;;;21.20;45.60;;;;;;4958777;28;20022;-75
2023/05/18 06:20:58;;;;;;;6.53;2.22;;;21.20;45.80;;;;;;4958925;28;20038;-75
2023/05/18 06:23:25;;;;;;;6.20;2.50;;;21.20;45.80;;;;;;4976178;28;20031;-74
2023/05/18 06:26:07;;;;;;;4.32;2.22;;;21.20;45.90;;;;;;4958797;28;20035;-74
2023/05/18 06:28:51;;;;;;;6.38;2.20;;;21.20;45.90;;;;;;4975668;28;20093;-75
2023/05/18 06:31:28;;;;;;;6.50;2.42;;;21.20;45.80;;;;;;4958875;28;20412;-75
2023/05/18 06:34:09;;;;;;;7.25;2.25;;;21.20;46.00;;;;;;4958816;28;20186;-75
2023/05/18 06:36:35;;;;;;;5.32;2.20;;;21.30;45.80;;;;;;4958561;28;20027;-75
2023/05/18 06:39:01;;;;;;;5.80;2.13;;;21.20;45.50;;;;;;4975443;28;20027;-75
2023/05/18 06:41:28;;;;;;;4.80;2.00;;;21.20;45.90;;;;;;4958430;28;20023;-75
2023/05/18 06:43:53;;;;;;;5.03;2.15;;;21.20;45.80;;;;;;4958482;28;20855;-74
2023/05/18 06:46:25;;;;;;;5.25;2.40;;;21.30;45.70;;;;;;4958384;28;20034;-75
2023/05/18 06:48:55;;;;;;;4.88;1.95;;;21.30;45.70;;;;;;4957960;28;20034;-75
2023/05/18 06:51:21;;;;;;;4.15;1.90;;;21.30;45.70;;;;;;4958393;28;20034;-76
2023/05/18 06:53:47;;;;;;;5.75;2.35;;;21.30;45.70;;;;;;4958249;28;20026;-75
2023/05/18 06:56:13;;;;;;;5.60;2.25;;;21.30;45.60;;;;;;4958243;28;20074;-75
2023/05/18 06:58:42;;;;;;;5.45;2.45;;;21.30;45.90;;;;;;4957761;28;20035;-75
2023/05/18 07:01:09;;;;;;;5.75;2.60;;;21.30;45.50;;;;;;4958073;28;20114;-75
2023/05/18 07:03:36;;;;;;;7.15;2.55;;;21.30;45.60;;;;;;4975267;28;20113;-75
2023/05/18 07:06:03;;;;;;;5.70;2.53;;;21.30;45.50;;;;;;4958020;28;20374;-75
2023/05/18 07:08:29;;;;;;;7.78;2.47;;;21.30;46.10;;;;;;4974877;28;20493;-75
2023/05/18 07:10:56;;;;;;;6.30;2.30;;;21.30;45.60;;;;;;4975213;28;20062;-75
2023/05/18 07:13:23;;;;;;;7.05;2.50;;;21.30;45.60;;;;;;4957956;28;20030;-75
2023/05/18 07:15:49;;;;;;;6.28;2.03;;;21.30;45.80;;;;;;4957772;28;20038;-75
2023/05/18 07:18:15;;;;;;;6.13;2.58;;;21.30;45.70;;;;;;4957035;28;20023;-75
2023/05/18 07:20:41;;;;;;;5.07;2.50;;;21.30;45.80;;;;;;4975056;28;20477;-74
2023/05/18 07:23:07;;;;;;;7.28;1.90;;;21.30;45.80;;;;;;4975388;28;20038;-75
2023/05/18 07:25:32;;;;;;;5.80;2.40;;;21.30;45.90;;;;;;4975024;28;20026;-75
2023/05/18 07:27:58;;;;;;;4.72;2.08;;;21.30;46.00;;;;;;4974639;28;20430;-75
2023/05/18 07:30:27;;;;;;;6.03;2.13;;;21.30;46.40;;;;;;4957411;28;20027;-75
2023/05/18 07:32:55;;;;;;;5.80;2.25;;;21.30;45.80;;;;;;4974974;28;20123;-75
2023/05/18 07:35:25;;;;;;;5.95;2.15;;;21.30;45.80;;;;;;4974959;28;20444;-75
2023/05/18 07:37:52;;;;;;;6.45;2.63;;;21.30;45.90;;;;;;4974433;28;20223;-75
2023/05/18 07:40:19;;;;;;;4.65;2.20;;;21.40;45.90;;;;;;4957437;28;20037;-75
2023/05/18 07:42:45;;;;;;;5.43;2.30;;;21.40;46.20;;;;;;4974743;28;20054;-75
2023/05/18 07:45:11;;;;;;;5.82;2.40;;;21.30;46.10;;;;;;4957588;28;20085;-76
2023/05/18 07:47:37;;;;;;;4.63;2.15;;;21.30;46.10;;;;;;4974266;28;20039;-76
2023/05/18 07:50:03;;;;;;;4.68;2.00;;;21.40;46.10;;;;;;4974524;28;20321;-76
2023/05/18 07:52:29;;;;;;;5.75;2.30;;;21.40;46.20;;;;;;4957359;28;20035;-76
2023/05/18 07:54:58;;;;;;;4.78;2.47;;;21.30;46.30;;;;;;4974677;28;20488;-76
2023/05/18 07:57:24;;;;;;;6.00;2.72;;;21.40;46.10;;;;;;4956849;28;20489;-76
2023/05/18 07:59:51;;;;;;;6.43;2.30;;;21.40;46.30;;;;;;4941017;28;20447;-76
2023/05/18 08:02:18;;;;;;;6.72;2.20;;;21.40;46.10;;;;;;4974360;28;20031;-75
2023/05/18 08:04:45;;;;;;;6.45;2.53;;;21.30;46.20;;;;;;4974329;28;20499;-74
2023/05/18 08:07:11;;;;;;;5.22;2.10;;;21.40;46.30;;;;;;4973973;28;20771;-75
2023/05/18 08:09:37;;;;;;;6.43;2.25;;;21.30;46.20;;;;;;4974134;28;20023;-75
2023/05/18 08:12:04;;;;;;;5.38;2.17;;;21.30;46.20;;;;;;4974127;28;20580;-75
2023/05/18 08:14:30;;;;;;;6.10;2.35;;;21.30;46.20;;;;;;4974240;28;20110;-75
2023/05/18 08:16:56;;;;;;;7.18;2.60;;;21.30;46.20;;;;;;4956555;28;20114;-75
2023/05/18 08:19:22;;;;;;;7.35;2.55;;;21.30;46.30;;;;;;4974000;28;20033;-75
2023/05/18 08:21:48;;;;;;;3.65;2.00;;;21.30;46.20;;;;;;4974038;28;20423;-75
2023/05/18 08:24:13;;;;;;;5.15;2.22;;;21.30;46.20;;;;;;4973885;28;20046;-75
2023/05/18 08:26:39;;;;;;;5.55;2.30;;;21.30;46.30;;;;;;4973859;28;20493;-75
2023/05/18 08:29:08;;;;;;;7.25;2.40;;;21.30;46.30;;;;;;4972795;28;20043;-75
2023/05/18 08:31:41;;;;;;;5.57;2.00;;;21.30;46.20;;;;;;4956231;28;20370;-75
2023/05/18 08:34:07;;;;;;;5.00;2.20;;;21.30;46.30;;;;;;4973782;28;20680;-76
2023/05/18 08:36:35;;;;;;;4.07;2.00;;;21.30;46.20;;;;;;4973660;28;20023;-75
2023/05/18 08:39:01;;;;;;;8.02;2.60;;;21.30;46.10;;;;;;4956157;28;20039;-75
2023/05/18 08:41:49;;;;;;;5.72;2.05;;;21.30;46.10;;;;;;4973609;28;20423;-75
2023/05/18 08:44:21;;;;;;;4.57;2.10;;;21.30;46.20;;;;;;4957356;28;20089;-75
2023/05/18 08:46:50;;;;;;;5.72;2.10;;;21.30;46.30;;;;;;4973406;28;20135;-75
2023/05/18 08:49:20;;;;;;;5.63;2.40;;;21.30;46.20;;;;;;4956111;28;20142;-75
2023/05/18 08:51:56;;;;;;;3.90;2.17;;;21.30;46.20;;;;;;4973314;28;20278;-75
2023/05/18 08:54:22;;;;;;;6.75;2.90;;;21.30;46.20;;;;;;4956193;28;20039;-75
2023/05/18 08:56:51;;;;;;;5.88;2.35;;;21.30;46.20;;;;;;4973198;28;20409;-76
2023/05/18 08:59:25;;;;;;;6.38;2.85;;;21.30;46.10;;;;;;4955976;28;20030;-75
2023/05/18 09:01:53;;;;;;;6.95;2.67;;;21.30;46.20;;;;;;4940296;28;20038;-74
2023/05/18 09:04:20;;;;;;;8.15;3.30;;;21.30;46.10;;;;;;4955900;28;20084;-76
2023/05/18 09:06:47;;;;;;;8.27;3.33;;;21.30;46.10;;;;;;4972976;28;20026;-75
2023/05/18 09:09:15;;;;;;;8.40;3.38;;;21.30;46.10;;;;;;4955895;28;20030;-75
2023/05/18 09:11:41;;;;;;;9.60;4.35;;;21.30;46.10;;;;;;4973066;28;20023;-75
2023/05/18 09:14:07;;;;;;;9.10;4.00;;;21.30;46.20;;;;;;4973054;28;20030;-75
2023/05/18 09:16:32;;;;;;;8.85;4.43;;;21.30;46.30;;;;;;4973074;28;20396;-74
2023/05/18 09:18:59;;;;;;;8.43;4.10;;;21.30;46.10;;;;;;4955416;28;20039;-75
2023/05/18 09:21:25;;;;;;;10.75;5.32;;;21.30;46.10;;;;;;4955799;28;20038;-75
2023/05/18 09:23:51;;;;;;;10.18;4.47;;;21.30;46.10;;;;;;4972954;28;20034;-75
2023/05/18 09:26:20;;;;;;;11.77;5.15;;;21.30;46.00;;;;;;4955859;28;20049;-75
2023/05/18 09:28:51;;;;;;;12.82;4.25;;;21.30;46.00;;;;;;4972429;28;20428;-75
2023/05/18 09:31:18;;;;;;;11.38;5.88;;;21.40;46.10;;;;;;4955465;28;20045;-75
2023/05/18 09:33:45;;;;;;;11.55;5.30;;;21.30;46.10;;;;;;4972712;28;20050;-75
2023/05/18 09:36:13;;;;;;;11.45;5.82;;;21.40;46.30;;;;;;4955437;28;20031;-75
2023/05/18 09:38:45;;;;;;;10.07;4.77;;;21.40;46.20;;;;;;4955126;28;20097;-76
2023/05/18 09:41:16;;;;;;;11.20;4.65;;;21.40;46.30;;;;;;4972815;28;20034;-76
2023/05/18 09:43:42;;;;;;;11.73;5.03;;;21.40;46.40;;;;;;4955614;28;20042;-74
2023/05/18 09:46:10;;;;;;;9.20;4.78;;;21.40;46.50;;;;;;4973096;28;20038;-75
2023/05/18 09:48:41;;;;;;;9.05;4.20;;;21.40;46.60;;;;;;4954887;28;20039;-75
2023/05/18 09:51:10;;;;;;;9.48;4.65;;;21.40;46.60;;;;;;4955214;28;20038;-75
2023/05/18 09:53:36;;;;;;;11.98;5.03;;;21.40;46.40;;;;;;4972635;28;20527;-75
2023/05/18 09:56:08;;;;;;;10.73;4.68;;;21.40;46.60;;;;;;4972496;28;20034;-74
2023/05/18 09:58:34;;;;;;;8.75;4.43;;;21.40;46.30;;;;;;4954862;28;20062;-75
2023/05/18 10:01:01;;;;;;;9.25;4.00;;;21.40;46.30;;;;;;4972476;28;20038;-74
2023/05/18 10:03:38;;;;;;;9.85;4.47;;;21.40;46.20;;;;;;4972482;28;20027;-75
2023/05/18 10:06:14;;;;;;;12.43;4.82;;;21.40;46.20;;;;;;4972784;28;20027;-75
2023/05/18 10:08:40;;;;;;;12.15;4.90;;;21.40;46.20;;;;;;4972119;28;20038;-75
2023/05/18 10:11:06;;;;;;;12.15;4.72;;;21.30;46.10;;;;;;4972339;28;20496;-75
2023/05/18 10:13:33;;;;;;;8.40;4.25;;;21.40;46.20;;;;;;4955002;28;20052;-75
2023/05/18 10:16:04;;;;;;;11.05;4.55;;;21.40;46.20;;;;;;4972267;28;20035;-75
2023/05/18 10:18:33;;;;;;;9.13;4.35;;;21.40;46.30;;;;;;4971832;28;20026;-75
2023/05/18 10:21:02;;;;;;;9.27;4.35;;;21.40;46.30;;;;;;4972290;28;20080;-75
2023/05/18 10:23:33;;;;;;;9.80;4.20;;;21.40;46.40;;;;;;4972247;28;20504;-75
2023/05/18 10:25:59;;;;;;;11.70;4.60;;;21.40;46.50;;;;;;4972305;28;20401;-75
2023/05/18 10:28:27;;;;;;;9.15;4.22;;;21.40;46.50;;;;;;4954560;28;20031;-75
2023/05/18 10:30:58;;;;;;;10.23;4.18;;;21.40;46.30;;;;;;4972390;28;20485;-75
2023/05/18 10:33:27;;;;;;;9.63;4.32;;;21.40;46.40;;;;;;4954866;28;20019;-74
2023/05/18 10:35:53;;;;;;;9.07;3.90;;;21.40;46.20;;;;;;4972181;28;20098;-74
2023/05/18 10:38:27;;;;;;;8.57;4.03;;;21.40;46.20;;;;;;4954499;28;20038;-75
2023/05/18 10:40:57;;;;;;;8.05;3.75;;;21.40;46.30;;;;;;4939002;28;20037;-75
2023/05/18 10:43:26;;;;;;;8.13;3.80;;;21.40;46.40;;;;;;4954706;28;20054;-75
2023/05/18 10:45:59;;;;;;;8.80;4.00;;;21.40;46.50;;;;;;4971987;28;20031;-74
2023/05/18 10:48:27;;;;;;;7.82;4.07;;;21.40;46.50;;;;;;4971668;28;20493;-75
2023/05/18 10:50:56;;;;;;;8.13;3.83;;;21.40;46.50;;;;;;4971919;28;20027;-75
2023/05/18 10:53:28;;;;;;;8.20;4.00;;;21.40;46.40;;;;;;4973295;28;20033;-74
2023/05/18 10:55:54;;;;;;;7.88;3.45;;;21.40;46.40;;;;;;4975573;28;20508;-75
2023/05/18 10:58:25;;;;;;;8.85;3.70;;;21.40;46.40;;;;;;4975364;28;20042;-75
2023/05/18 11:01:00;;;;;;;11.57;4.38;;;21.40;46.20;;;;;;4975820;28;20113;-75
2023/05/18 11:03:26;;;;;;;8.13;3.60;;;21.40;46.30;;;;;;4975337;28;20378;-74
2023/05/18 11:06:03;;;;;;;7.43;3.85;;;21.40;47.00;;;;;;4975619;28;20503;-75
2023/05/18 11:08:28;;;;;;;8.23;3.70;;;21.40;46.20;;;;;;4975249;28;20039;-75
2023/05/18 11:11:03;;;;;;;8.07;3.83;;;21.40;46.20;;;;;;4975602;28;20054;-74
2023/05/18 11:13:30;;;;;;;8.40;4.30;;;21.40;46.40;;;;;;4975673;28;20412;-75
2023/05/18 11:15:57;;;;;;;7.57;3.75;;;21.40;46.30;;;;;;4975187;28;20093;-75
2023/05/18 11:18:38;;;;;;;8.00;3.50;;;21.40;46.30;;;;;;4957946;28;20052;-75
2023/05/18 11:21:34;;;;;;;7.55;3.45;;;21.40;46.30;;;;;;4957778;28;20049;-75
2023/05/18 11:24:20;;;;;;;7.43;3.45;;;21.40;46.30;;;;;;4975247;28;20041;-75
2023/05/18 11:26:54;;;;;;;7.53;3.55;;;21.40;46.30;;;;;;4974975;28;20066;-75
2023/05/18 11:29:21;;;;;;;10.23;3.80;;;21.40;46.40;;;;;;4974810;28;20041;-75
2023/05/18 11:31:56;;;;;;;9.38;3.75;;;21.40;46.30;;;;;;4975024;28;20417;-75
2023/05/18 11:34:36;;;;;;;7.03;4.10;;;21.40;46.30;;;;;;4974921;28;20039;-75
2023/05/18 11:37:02;;;;;;;8.93;4.30;;;21.40;46.30;;;;;;4974822;28;20035;-75
2023/05/18 11:39:28;;;;;;;10.63;4.43;;;21.40;46.50;;;;;;4974828;28;20031;-75
2023/05/18 11:42:05;;;;;;;8.70;4.63;;;21.40;46.30;;;;;;4957795;28;20098;-75
2023/05/18 11:44:32;;;;;;;13.05;6.28;;;21.40;46.40;;;;;;4974990;28;20129;-75
2023/05/18 11:47:00;;;;;;;15.27;7.70;;;21.40;46.40;;;;;;4974484;28;20078;-74
2023/05/18 11:49:35;;;;;;;17.40;8.88;;;21.40;46.30;;;;;;4974665;28;20450;-75
2023/05/18 11:52:07;;;;;;;16.35;8.77;;;21.30;46.30;;;;;;4974885;28;20051;-75
2023/05/18 11:54:38;;;;;;;23.63;14.68;;;21.30;46.30;;;;;;4974584;28;20090;-75
2023/05/18 11:57:04;;;;;;;24.20;13.40;;;21.40;46.30;;;;;;4974250;28;20358;-75
2023/05/18 11:59:31;;;;;;;22.05;13.60;;;21.30;46.20;;;;;;4974511;28;20053;-75
2023/05/18 12:02:00;;;;;;;20.13;11.93;;;21.40;46.30;;;;;;4941612;28;20046;-75
2023/05/18 12:04:26;;;;;;;23.02;12.70;;;21.30;46.30;;;;;;4973406;28;20090;-75
2023/05/18 12:06:53;;;;;;;23.90;14.60;;;21.40;46.30;;;;;;4957078;28;20030;-75
2023/05/18 12:09:19;;;;;;;23.05;13.55;;;21.40;46.40;;;;;;4957069;28;20035;-75
2023/05/18 12:11:45;;;;;;;24.35;13.73;;;21.40;46.90;;;;;;4974166;28;20094;-75
2023/05/18 12:14:12;;;;;;;27.10;15.57;;;21.30;46.20;;;;;;4974050;28;20481;-75
2023/05/18 12:16:42;;;;;;;24.02;14.80;;;21.40;46.30;;;;;;4973941;28;20409;-75
2023/05/18 12:19:08;;;;;;;23.88;13.40;;;21.40;46.20;;;;;;4974113;28;20489;-75
2023/05/18 12:21:37;;;;;;;21.40;11.43;;;21.40;46.30;;;;;;4974521;28;20275;-75
2023/05/18 12:24:03;;;;;;;22.23;12.13;;;21.40;46.30;;;;;;4941117;28;20114;-75
2023/05/18 12:26:30;;;;;;;20.83;11.55;;;21.40;46.30;;;;;;4973826;28;20061;-75
2023/05/18 12:28:59;;;;;;;18.20;10.63;;;21.40;46.30;;;;;;4956153;28;20034;-75
2023/05/18 12:31:25;;;;;;;21.38;11.98;;;21.40;46.20;;;;;;4973977;28;20446;-75
2023/05/18 12:33:53;;;;;;;22.42;11.60;;;21.40;46.30;;;;;;4973785;28;20081;-75
2023/05/18 12:36:19;;;;;;;16.27;9.88;;;21.40;46.30;;;;;;4973879;28;20162;-75
2023/05/18 12:38:51;;;;;;;15.98;9.75;;;21.40;46.40;;;;;;4973520;28;20513;-75
2023/05/18 12:41:26;;;;;;;18.70;9.73;;;21.30;46.20;;;;;;4973854;28;20030;-74
2023/05/18 12:43:53;;;;;;;17.55;9.60;;;21.40;46.30;;;;;;4973921;28;20473;-75
2023/05/18 12:46:22;;;;;;;19.50;10.25;;;21.40;46.30;;;;;;4973747;28;20057;-74
2023/05/18 12:48:56;;;;;;;16.80;9.70;;;21.40;46.30;;;;;;4956037;28;20453;-75
2023/05/18 12:51:23;;;;;;;16.70;9.07;;;21.40;46.40;;;;;;4973454;28;20401;-74
2023/05/18 12:53:49;;;;;;;18.75;10.00;;;21.40;46.40;;;;;;4956427;28;20034;-75